Budapest Bridge — VRIZ5 — position and weather

sailwx.info

Track history (hours):
 
Tides and Currents Weather Stations Pressure Air Temp Water Temp Dewpoint Dewpoint Depression Visibility Wind Speed Wind Dir Waves Ship Positions

Budapest Bridge

Last reported at 2018-Jan-19 05:59 UTC. Time now 2018-Jan-23 06:27 UTC.
Position N 32°05' W 081°03'.

Length 268 m; draft 9.6 m.

Type: Ship (hazmat cat A). MMSI: 477434200.

Date/timePositionNaut miles runAvg speedWind from/ knotsBaromVisibWave heightAir tempDewpointWater temp
2018-Jan-19 05:59N 32°05' W 081°03'4 7.6
2018-Jan-19 05:30N 32°06' W 081°07'1 2.5
2018-Jan-19 04:59N 32°07' W 081°08'0 0.0
2018-Jan-19 04:29N 32°07' W 081°08'0 0.0
2018-Jan-19 03:59N 32°07' W 081°08'0 0.0
2018-Jan-19 03:29N 32°07' W 081°08'0 0.0
2018-Jan-19 02:59N 32°07' W 081°08'0 0.0
2018-Jan-19 02:29N 32°07' W 081°08'0 0.0
2018-Jan-19 01:59N 32°07' W 081°08'0 0.0
2018-Jan-19 01:29N 32°07' W 081°08'0 0.0
2018-Jan-19 00:59N 32°07' W 081°08'0 0.0
2018-Jan-19 00:26N 32°07' W 081°08'0 0.0
2018-Jan-18 23:59N 32°07' W 081°08'0 0.0
2018-Jan-18 23:29N 32°07' W 081°08'0 0.0
2018-Jan-18 22:59N 32°07' W 081°08'0 0.0
2018-Jan-18 21:11N 32°07' W 081°08'0 0.0
2018-Jan-18 20:59N 32°07' W 081°08'0 0.0
2018-Jan-18 20:29N 32°07' W 081°08'0 0.0
2018-Jan-18 19:59N 32°07' W 081°08'0 0.0
2018-Jan-18 19:29N 32°07' W 081°08'0 0.0
2018-Jan-18 18:59N 32°07' W 081°08'0 0.0
2018-Jan-18 18:29N 32°07' W 081°08'0 0.0
2018-Jan-18 17:59N 32°07' W 081°08'0 0.0
2018-Jan-18 17:29N 32°07' W 081°08'0 0.0
2018-Jan-18 16:59N 32°07' W 081°08'0 0.0
2018-Jan-18 16:29N 32°07' W 081°08'0 0.0
2018-Jan-18 15:56N 32°07' W 081°08'0 0.0
2018-Jan-18 15:29N 32°07' W 081°08'0 0.0
2018-Jan-18 14:59N 32°07' W 081°08'0 0.0
2018-Jan-18 14:29N 32°07' W 081°08'0 0.0
2018-Jan-18 13:59N 32°07' W 081°08'1 1.3
2018-Jan-18 13:30N 32°08' W 081°08'2 4.7
2018-Jan-18 13:00N 32°06' W 081°07'3 5.8
2018-Jan-18 12:30N 32°05' W 081°03'4 7.3
2018-Jan-18 12:00N 32°05' W 080°59'511.0
2018-Jan-18 11:30N 32°02' W 080°54'713.5
2018-Jan-18 11:01N 31°59' W 080°46'612.7
2018-Jan-18 10:30N 31°57' W 080°40'3 5.2
2018-Jan-18 10:00N 31°58' W 080°37'0 0.1
2018-Jan-18 09:30N 31°58' W 080°37'0 0.0
2018-Jan-18 09:00N 31°58' W 080°37'0 0.0
2018-Jan-18 08:30N 31°58' W 080°37'0 0.1
2018-Jan-18 08:00N 31°58' W 080°37'0 0.0
2018-Jan-18 07:30N 31°58' W 080°37'0 0.1
2018-Jan-18 07:00N 31°58' W 080°37'0 0.0
2018-Jan-18 06:30N 31°58' W 080°37'0 0.0
2018-Jan-18 06:00N 31°58' W 080°37'0 0.1
2018-Jan-18 05:30N 31°58' W 080°37'0 0.0
2018-Jan-18 05:00N 31°58' W 080°37'0 0.0
2018-Jan-18 04:30N 31°58' W 080°37'0 0.0
2018-Jan-18 03:03N 31°58' W 080°37'0 0.5
2018-Jan-18 03:00N 31°58' W 080°37'0 0.0
2018-Jan-18 02:30N 31°58' W 080°37'0 0.0
2018-Jan-18 01:57N 31°58' W 080°37'0 0.0
2018-Jan-18 01:30N 31°58' W 080°37'0 0.0
2018-Jan-18 01:00N 31°58' W 080°37'0 0.0
2018-Jan-17 23:57N 31°58' W 080°37'  
2018-Jan-12 15:00N 40°30' W 073°47'4 7.6
2018-Jan-12 14:30N 40°27' W 073°50'4 8.8
2018-Jan-12 14:00N 40°29' W 073°55'5 9.7
2018-Jan-12 13:30N 40°32' W 074°01'5 9.1
2018-Jan-12 13:00N 40°36' W 074°03'4 7.6
2018-Jan-12 12:31N 40°39' W 074°06'2 4.9
2018-Jan-12 12:00N 40°39' W 074°09'1 1.8
2018-Jan-12 11:29N 40°40' W 074°08'0 0.0
2018-Jan-12 10:59N 40°40' W 074°08'0 0.0
2018-Jan-12 10:29N 40°40' W 074°08'0 0.0
2018-Jan-12 09:59N 40°40' W 074°08'0 0.0
2018-Jan-12 09:29N 40°40' W 074°08'0 0.0
2018-Jan-12 08:59N 40°40' W 074°08'0 0.0
2018-Jan-12 08:29N 40°40' W 074°08'0 0.0
2018-Jan-12 07:59N 40°40' W 074°08'0 0.0
2018-Jan-12 07:29N 40°40' W 074°08'0 0.0
2018-Jan-12 06:59N 40°40' W 074°08'0 0.0
2018-Jan-12 06:29N 40°40' W 074°08'0 0.0
2018-Jan-12 05:59N 40°40' W 074°08'0 0.0
2018-Jan-12 05:29N 40°40' W 074°08'0 0.0
2018-Jan-12 04:59N 40°40' W 074°08'0 0.0
2018-Jan-12 04:29N 40°40' W 074°08'0 0.0
2018-Jan-12 03:59N 40°40' W 074°08'0 0.0
2018-Jan-12 03:29N 40°40' W 074°08'0 0.0
2018-Jan-12 02:59N 40°40' W 074°08'0 0.0
2018-Jan-12 02:29N 40°40' W 074°08'0 0.0
2018-Jan-12 01:59N 40°40' W 074°08'0 0.0
2018-Jan-12 01:29N 40°40' W 074°08'0 0.0
2018-Jan-12 00:59N 40°40' W 074°08'0 0.0
2018-Jan-12 00:29N 40°40' W 074°08'0 0.0
2018-Jan-11 23:56N 40°40' W 074°08'0 0.0
2018-Jan-11 23:26N 40°40' W 074°08'0 0.0
2018-Jan-11 22:59N 40°40' W 074°08'0 0.0
2018-Jan-11 22:29N 40°40' W 074°08'0 0.0
2018-Jan-11 22:00N 40°40' W 074°08'0 0.0
2018-Jan-11 21:30N 40°40' W 074°08'0 0.0
2018-Jan-11 21:00N 40°40' W 074°08'0 0.0
2018-Jan-11 20:30N 40°40' W 074°08'0 0.0
2018-Jan-11 20:00N 40°40' W 074°08'0 0.0
2018-Jan-11 19:30N 40°40' W 074°08'0 0.0
2018-Jan-11 19:00N 40°40' W 074°08'0 0.0
2018-Jan-11 18:30N 40°40' W 074°08'0 0.0
2018-Jan-11 18:00N 40°40' W 074°08'0 0.0
2018-Jan-11 17:30N 40°40' W 074°08'0 0.0
2018-Jan-11 17:00N 40°40' W 074°08'0 0.0
2018-Jan-11 16:30N 40°40' W 074°08'0 0.0
2018-Jan-11 16:00N 40°40' W 074°08'0 0.0
2018-Jan-11 15:30N 40°40' W 074°08'0 0.0
2018-Jan-11 15:00N 40°40' W 074°08'0 0.1
2018-Jan-11 14:30N 40°40' W 074°08'0 0.0
2018-Jan-11 13:57N 40°40' W 074°08'0 0.0
2018-Jan-11 13:30N 40°40' W 074°08'0 0.0
2018-Jan-11 13:00N 40°40' W 074°08'0 0.0
2018-Jan-11 12:27N 40°40' W 074°08'0 0.0
2018-Jan-11 12:00N 40°40' W 074°08'0 0.3
2018-Jan-11 11:30N 40°40' W 074°08'2 3.5
2018-Jan-11 11:01N 40°39' W 074°07'3 6.0
2018-Jan-11 10:31N 40°38' W 074°03'4 7.0
2018-Jan-11 10:00N 40°35' W 074°02'3 5.9
2018-Jan-11 09:30N 40°32' W 074°01'4 7.3
2018-Jan-11 09:00N 40°30' W 073°57'4 8.7
2018-Jan-11 08:30N 40°28' W 073°52'24 9.3
2018-Jan-11 05:56N 40°29' W 073°20'  
Track history (hours):
 
Tides and Currents Weather Stations Pressure Air Temp Water Temp Dewpoint Dewpoint Depression Visibility Wind Speed Wind Dir Waves Ship Positions

Budapest Bridge

Last reported at 2018-Jan-19 05:59 UTC. Time now 2018-Jan-23 06:27 UTC.
Position N 32°05' W 081°03'.

Length 268 m; draft 9.6 m.

Type: Ship (hazmat cat A). MMSI: 477434200.

Date/timePositionNaut miles runAvg speedWind from/ knotsBaromVisibWave heightAir tempDewpointWater temp
2018-Jan-19 05:59N 32°05' W 081°03'4 7.6
2018-Jan-19 05:30N 32°06' W 081°07'1 2.5
2018-Jan-19 04:59N 32°07' W 081°08'0 0.0
2018-Jan-19 04:29N 32°07' W 081°08'0 0.0
2018-Jan-19 03:59N 32°07' W 081°08'0 0.0
2018-Jan-19 03:29N 32°07' W 081°08'0 0.0
2018-Jan-19 02:59N 32°07' W 081°08'0 0.0
2018-Jan-19 02:29N 32°07' W 081°08'0 0.0
2018-Jan-19 01:59N 32°07' W 081°08'0 0.0
2018-Jan-19 01:29N 32°07' W 081°08'0 0.0
2018-Jan-19 00:59N 32°07' W 081°08'0 0.0
2018-Jan-19 00:26N 32°07' W 081°08'0 0.0
2018-Jan-18 23:59N 32°07' W 081°08'0 0.0
2018-Jan-18 23:29N 32°07' W 081°08'0 0.0
2018-Jan-18 22:59N 32°07' W 081°08'0 0.0
2018-Jan-18 21:11N 32°07' W 081°08'0 0.0
2018-Jan-18 20:59N 32°07' W 081°08'0 0.0
2018-Jan-18 20:29N 32°07' W 081°08'0 0.0
2018-Jan-18 19:59N 32°07' W 081°08'0 0.0
2018-Jan-18 19:29N 32°07' W 081°08'0 0.0
2018-Jan-18 18:59N 32°07' W 081°08'0 0.0
2018-Jan-18 18:29N 32°07' W 081°08'0 0.0
2018-Jan-18 17:59N 32°07' W 081°08'0 0.0
2018-Jan-18 17:29N 32°07' W 081°08'0 0.0
2018-Jan-18 16:59N 32°07' W 081°08'0 0.0
2018-Jan-18 16:29N 32°07' W 081°08'0 0.0
2018-Jan-18 15:56N 32°07' W 081°08'0 0.0
2018-Jan-18 15:29N 32°07' W 081°08'0 0.0
2018-Jan-18 14:59N 32°07' W 081°08'0 0.0
2018-Jan-18 14:29N 32°07' W 081°08'0 0.0
2018-Jan-18 13:59N 32°07' W 081°08'1 1.3
2018-Jan-18 13:30N 32°08' W 081°08'2 4.7
2018-Jan-18 13:00N 32°06' W 081°07'3 5.8
2018-Jan-18 12:30N 32°05' W 081°03'4 7.3
2018-Jan-18 12:00N 32°05' W 080°59'511.0
2018-Jan-18 11:30N 32°02' W 080°54'713.5
2018-Jan-18 11:01N 31°59' W 080°46'612.7
2018-Jan-18 10:30N 31°57' W 080°40'3 5.2
2018-Jan-18 10:00N 31°58' W 080°37'0 0.1
2018-Jan-18 09:30N 31°58' W 080°37'0 0.0
2018-Jan-18 09:00N 31°58' W 080°37'0 0.0
2018-Jan-18 08:30N 31°58' W 080°37'0 0.1
2018-Jan-18 08:00N 31°58' W 080°37'0 0.0
2018-Jan-18 07:30N 31°58' W 080°37'0 0.1
2018-Jan-18 07:00N 31°58' W 080°37'0 0.0
2018-Jan-18 06:30N 31°58' W 080°37'0 0.0
2018-Jan-18 06:00N 31°58' W 080°37'0 0.1
2018-Jan-18 05:30N 31°58' W 080°37'0 0.0
2018-Jan-18 05:00N 31°58' W 080°37'0 0.0
2018-Jan-18 04:30N 31°58' W 080°37'0 0.0
2018-Jan-18 03:03N 31°58' W 080°37'0 0.5
2018-Jan-18 03:00N 31°58' W 080°37'0 0.0
2018-Jan-18 02:30N 31°58' W 080°37'0 0.0
2018-Jan-18 01:57N 31°58' W 080°37'0 0.0
2018-Jan-18 01:30N 31°58' W 080°37'0 0.0
2018-Jan-18 01:00N 31°58' W 080°37'0 0.0
2018-Jan-17 23:57N 31°58' W 080°37'  
2018-Jan-12 15:00N 40°30' W 073°47'4 7.6
2018-Jan-12 14:30N 40°27' W 073°50'4 8.8
2018-Jan-12 14:00N 40°29' W 073°55'5 9.7
2018-Jan-12 13:30N 40°32' W 074°01'5 9.1
2018-Jan-12 13:00N 40°36' W 074°03'4 7.6
2018-Jan-12 12:31N 40°39' W 074°06'2 4.9
2018-Jan-12 12:00N 40°39' W 074°09'1 1.8
2018-Jan-12 11:29N 40°40' W 074°08'0 0.0
2018-Jan-12 10:59N 40°40' W 074°08'0 0.0
2018-Jan-12 10:29N 40°40' W 074°08'0 0.0
2018-Jan-12 09:59N 40°40' W 074°08'0 0.0
2018-Jan-12 09:29N 40°40' W 074°08'0 0.0
2018-Jan-12 08:59N 40°40' W 074°08'0 0.0
2018-Jan-12 08:29N 40°40' W 074°08'0 0.0
2018-Jan-12 07:59N 40°40' W 074°08'0 0.0
2018-Jan-12 07:29N 40°40' W 074°08'0 0.0
2018-Jan-12 06:59N 40°40' W 074°08'0 0.0
2018-Jan-12 06:29N 40°40' W 074°08'0 0.0
2018-Jan-12 05:59N 40°40' W 074°08'0 0.0
2018-Jan-12 05:29N 40°40' W 074°08'0 0.0
2018-Jan-12 04:59N 40°40' W 074°08'0 0.0
2018-Jan-12 04:29N 40°40' W 074°08'0 0.0
2018-Jan-12 03:59N 40°40' W 074°08'0 0.0
2018-Jan-12 03:29N 40°40' W 074°08'0 0.0
2018-Jan-12 02:59N 40°40' W 074°08'0 0.0
2018-Jan-12 02:29N 40°40' W 074°08'0 0.0
2018-Jan-12 01:59N 40°40' W 074°08'0 0.0
2018-Jan-12 01:29N 40°40' W 074°08'0 0.0
2018-Jan-12 00:59N 40°40' W 074°08'0 0.0
2018-Jan-12 00:29N 40°40' W 074°08'0 0.0
2018-Jan-11 23:56N 40°40' W 074°08'0 0.0
2018-Jan-11 23:26N 40°40' W 074°08'0 0.0
2018-Jan-11 22:59N 40°40' W 074°08'0 0.0
2018-Jan-11 22:29N 40°40' W 074°08'0 0.0
2018-Jan-11 22:00N 40°40' W 074°08'0 0.0
2018-Jan-11 21:30N 40°40' W 074°08'0 0.0
2018-Jan-11 21:00N 40°40' W 074°08'0 0.0
2018-Jan-11 20:30N 40°40' W 074°08'0 0.0
2018-Jan-11 20:00N 40°40' W 074°08'0 0.0
2018-Jan-11 19:30N 40°40' W 074°08'0 0.0
2018-Jan-11 19:00N 40°40' W 074°08'0 0.0
2018-Jan-11 18:30N 40°40' W 074°08'0 0.0
2018-Jan-11 18:00N 40°40' W 074°08'0 0.0
2018-Jan-11 17:30N 40°40' W 074°08'0 0.0
2018-Jan-11 17:00N 40°40' W 074°08'0 0.0
2018-Jan-11 16:30N 40°40' W 074°08'0 0.0
2018-Jan-11 16:00N 40°40' W 074°08'0 0.0
2018-Jan-11 15:30N 40°40' W 074°08'0 0.0
2018-Jan-11 15:00N 40°40' W 074°08'0 0.1
2018-Jan-11 14:30N 40°40' W 074°08'0 0.0
2018-Jan-11 13:57N 40°40' W 074°08'0 0.0
2018-Jan-11 13:30N 40°40' W 074°08'0 0.0
2018-Jan-11 13:00N 40°40' W 074°08'0 0.0
2018-Jan-11 12:27N 40°40' W 074°08'0 0.0
2018-Jan-11 12:00N 40°40' W 074°08'0 0.3
2018-Jan-11 11:30N 40°40' W 074°08'2 3.5
2018-Jan-11 11:01N 40°39' W 074°07'3 6.0
2018-Jan-11 10:31N 40°38' W 074°03'4 7.0
2018-Jan-11 10:00N 40°35' W 074°02'3 5.9
2018-Jan-11 09:30N 40°32' W 074°01'4 7.3
2018-Jan-11 09:00N 40°30' W 073°57'4 8.7
2018-Jan-11 08:30N 40°28' W 073°52'24 9.3
2018-Jan-11 05:56N 40°29' W 073°20'  

Dump ship's entire track history